Time;durP1;ratioP1;P1;durP2;ratioP2;P2;SDS_P1;SDS_P2;PMS_P1;PMS_P2;Temp;Humidity;BMP_temperature;BMP_pressure;BME280_temperature;BME280_humidity;BME280_pressure;Samples;Min_cycle;Max_cycle;Signal;HPM_P1;HPM_P2
2022/03/02 00:01:30;;;;;;;41.30;23.30;;;;;;;-142.75;100.00;79047.41;5030561;28;20111;-67
2022/03/02 00:03:56;;;;;;;39.83;22.27;;;;;;;-142.75;100.00;79045.44;5030325;28;20029;-67
2022/03/02 00:06:21;;;;;;;42.65;23.92;;;;;;;-142.75;100.00;79051.34;5020511;28;20026;-68
2022/03/02 00:08:47;;;;;;;42.25;23.63;;;;;;;-142.75;100.00;79051.34;5025672;28;20076;-68
2022/03/02 00:11:12;;;;;;;40.83;23.95;;;;;;;-142.75;100.00;79063.16;5010184;28;20030;-67
2022/03/02 00:13:38;;;;;;;38.53;23.25;;;;;;;-142.75;100.00;79047.41;5025028;28;20026;-67
2022/03/02 00:16:04;;;;;;;42.58;21.95;;;;;;;-142.75;100.00;79051.34;5010464;28;20026;-68
2022/03/02 00:18:29;;;;;;;42.00;23.70;;;;;;;-142.75;100.00;79047.41;5025774;28;20112;-67
2022/03/02 00:20:55;;;;;;;37.83;22.58;;;;;;;-142.75;100.00;79039.53;5010429;28;20032;-67
2022/03/02 00:23:20;;;;;;;41.63;22.42;;;;;;;-142.75;100.00;79041.50;5010319;28;20030;-67
2022/03/02 00:25:45;;;;;;;43.75;24.02;;;;;;;-142.75;100.00;79043.47;5010413;28;20040;-68
2022/03/02 00:28:11;;;;;;;42.42;23.33;;;;;;;-142.75;100.00;79047.41;5025193;28;20022;-68
2022/03/02 00:30:36;;;;;;;39.65;21.42;;;;;;;-142.75;100.00;79041.50;5010279;28;20105;-67
2022/03/02 00:33:02;;;;;;;39.72;22.60;;;;;;;-142.75;100.00;79041.50;5025430;28;20496;-68
2022/03/02 00:35:27;;;;;;;41.60;23.88;;;;;;;-142.75;100.00;79039.53;5010040;28;20116;-67
2022/03/02 00:37:52;;;;;;;40.88;21.20;;;;;;;-142.75;100.00;79033.63;5009941;28;20026;-67
2022/03/02 00:40:18;;;;;;;36.73;22.77;;;;;;;-142.75;100.00;79053.31;5010128;28;20026;-68
2022/03/02 00:42:44;;;;;;;39.97;21.38;;;;;;;-142.75;100.00;79051.34;5025404;28;20123;-67
2022/03/02 00:45:10;;;;;;;42.30;22.10;;;;;;;-142.75;100.00;79043.47;5010365;28;20034;-67
2022/03/02 00:47:35;;;;;;;44.30;22.75;;;;;;;-142.75;100.00;79057.25;5010023;28;20026;-67
2022/03/02 00:50:01;;;;;;;44.15;22.85;;;;;;;-142.75;100.00;79063.16;5025406;28;20030;-67
2022/03/02 00:52:26;;;;;;;40.47;22.83;;;;;;;-142.75;100.00;79071.03;5009941;28;20022;-68
2022/03/02 00:54:52;;;;;;;44.33;22.73;;;;;;;-142.75;100.00;79063.16;5010105;28;20487;-67
2022/03/02 00:57:17;;;;;;;41.42;22.63;;;;;;;-142.75;100.00;79049.38;5010249;28;20032;-67
2022/03/02 00:59:42;;;;;;;38.22;21.98;;;;;;;-142.75;100.00;79049.38;5009932;28;20472;-67
2022/03/02 01:02:08;;;;;;;39.40;21.83;;;;;;;-142.75;100.00;79043.47;5024818;28;20026;-67
2022/03/02 01:04:33;;;;;;;50.27;25.07;;;;;;;-142.75;100.00;79041.50;5010346;28;20283;-67
2022/03/02 01:06:58;;;;;;;41.97;24.83;;;;;;;-142.75;100.00;79027.69;5010040;28;20078;-67
2022/03/02 01:09:24;;;;;;;43.22;23.65;;;;;;;-142.75;100.00;79021.78;5024793;28;20061;-67
2022/03/02 01:11:49;;;;;;;45.92;23.80;;;;;;;-142.75;100.00;79008.00;5010076;28;20511;-67
2022/03/02 01:14:14;;;;;;;40.35;22.65;;;;;;;-142.75;100.00;79006.03;5009944;28;20026;-67
2022/03/02 01:16:40;;;;;;;38.20;22.23;;;;;;;-142.75;100.00;79000.13;5009868;28;20065;-67
2022/03/02 01:19:05;;;;;;;42.87;24.10;;;;;;;-142.75;100.00;78998.16;5024816;28;20276;-67
2022/03/02 01:21:31;;;;;;;44.10;24.45;;;;;;;-142.75;100.00;79009.97;5044918;28;20021;-67
2022/03/02 01:23:58;;;;;;;43.75;23.67;;;;;;;-142.75;100.00;79011.94;5031563;28;20088;-67
2022/03/02 01:26:27;;;;;;;37.73;23.77;;;;;;;-142.75;100.00;79011.94;5030809;28;20395;-67
2022/03/02 01:28:56;;;;;;;44.43;24.90;;;;;;;-142.75;100.00;79000.13;5013234;28;20044;-67
2022/03/02 01:31:22;;;;;;;43.90;23.10;;;;;;;-142.75;100.00;79000.13;5013245;28;20026;-67
2022/03/02 01:33:49;;;;;;;44.70;24.43;;;;;;;-142.75;100.00;78992.25;5027323;28;20050;-67
2022/03/02 01:36:14;;;;;;;42.10;23.27;;;;;;;-142.75;100.00;78996.19;5013310;28;20467;-67
2022/03/02 01:38:40;;;;;;;43.95;22.92;;;;;;;-142.75;100.00;78998.16;5012901;28;20109;-67
2022/03/02 01:41:05;;;;;;;39.97;22.27;;;;;;;-142.75;100.00;79008.00;5013296;28;20018;-67
2022/03/02 01:43:30;;;;;;;43.90;23.27;;;;;;;-142.75;100.00;79008.00;5012986;28;20402;-68
2022/03/02 01:45:56;;;;;;;40.75;22.80;;;;;;;-142.75;100.00;78998.16;5028477;28;20030;-67
2022/03/02 01:48:21;;;;;;;43.17;22.60;;;;;;;-142.75;100.00;79000.13;5012935;28;20026;-67
2022/03/02 01:50:46;;;;;;;38.63;22.02;;;;;;;-142.75;100.00;79008.00;5013333;28;20109;-68
2022/03/02 01:53:12;;;;;;;40.22;22.13;;;;;;;-142.75;100.00;79004.06;5028225;28;20430;-68
2022/03/02 01:55:37;;;;;;;43.80;23.30;;;;;;;-142.75;100.00;78998.16;5016618;28;20498;-67
2022/03/02 01:58:03;;;;;;;40.03;22.08;;;;;;;-142.75;100.00;78990.28;5032516;28;20034;-67
2022/03/02 02:00:29;;;;;;;40.05;22.27;;;;;;;-142.75;100.00;79004.06;5047661;28;20036;-67
2022/03/02 02:02:55;;;;;;;38.17;22.15;;;;;;;-142.75;100.00;79009.97;5032563;28;20491;-67
2022/03/02 02:05:20;;;;;;;45.05;22.95;;;;;;;-142.75;100.00;79006.03;5047485;28;20036;-67
2022/03/02 02:07:46;;;;;;;37.33;22.50;;;;;;;-142.75;100.00;79011.94;5027866;28;20033;-68
2022/03/02 02:10:12;;;;;;;38.58;22.48;;;;;;;-142.75;100.00;79019.81;5012485;28;20443;-67
2022/03/02 02:12:38;;;;;;;41.70;21.90;;;;;;;-142.75;100.00;79019.81;5012642;28;20112;-67
2022/03/02 02:15:05;;;;;;;38.55;21.75;;;;;;;-142.75;100.00;79019.81;5012784;28;20032;-67
2022/03/02 02:17:30;;;;;;;37.03;22.23;;;;;;;-142.75;100.00;79011.94;5012385;28;20037;-68
2022/03/02 02:19:56;;;;;;;41.83;22.77;;;;;;;-142.75;100.00;79017.84;5012848;28;20029;-67
2022/03/02 02:22:21;;;;;;;36.67;22.00;;;;;;;-142.75;100.00;79021.78;5012419;28;20040;-67
2022/03/02 02:24:47;;;;;;;40.33;23.38;;;;;;;-142.75;100.00;79011.94;5012547;28;20025;-67
2022/03/02 02:27:15;;;;;;;42.00;22.48;;;;;;;-142.75;100.00;79000.13;5012578;28;20032;-67
2022/03/02 02:29:42;;;;;;;36.73;21.47;;;;;;;-142.75;100.00;78998.16;5012155;28;20030;-67
2022/03/02 02:32:08;;;;;;;39.20;21.27;;;;;;;-142.75;100.00;78992.25;5012326;28;20021;-67
2022/03/02 02:34:33;;;;;;;37.20;22.00;;;;;;;-142.75;100.00;78984.38;5011475;28;20021;-67
2022/03/02 02:37:00;;;;;;;38.53;21.83;;;;;;;-142.75;100.00;78976.50;5029460;28;20038;-67
2022/03/02 02:39:27;;;;;;;38.60;21.37;;;;;;;-142.75;100.00;78968.63;5046953;28;20488;-67
2022/03/02 02:41:52;;;;;;;38.43;20.77;;;;;;;-142.75;100.00;78968.63;5031946;28;20025;-67
2022/03/02 02:44:18;;;;;;;40.30;21.98;;;;;;;-142.75;100.00;78984.38;5031707;28;20028;-67
2022/03/02 02:46:44;;;;;;;39.13;21.42;;;;;;;-142.75;100.00;78990.28;5031638;28;20053;-68
2022/03/02 02:49:10;;;;;;;37.70;21.80;;;;;;;-142.75;100.00;78970.59;5031872;28;20052;-67
2022/03/02 02:51:35;;;;;;;44.83;22.40;;;;;;;-142.75;100.00;78962.69;5031627;28;20037;-67
2022/03/02 02:54:02;;;;;;;42.05;22.33;;;;;;;-142.75;100.00;78966.66;5031677;28;20025;-68
2022/03/02 02:56:27;;;;;;;40.93;22.47;;;;;;;-142.75;100.00;78968.63;5031509;28;20025;-67
2022/03/02 02:58:52;;;;;;;38.87;21.20;;;;;;;-142.75;100.00;78980.44;5031119;28;20549;-67
2022/03/02 03:01:18;;;;;;;33.47;21.00;;;;;;;-142.75;100.00;78982.41;5031564;28;20275;-67
2022/03/02 03:03:43;;;;;;;34.97;19.87;;;;;;;-142.75;100.00;78994.22;5031183;28;20029;-67
2022/03/02 03:06:08;;;;;;;37.83;22.27;;;;;;;-142.75;100.00;78984.38;5046467;28;20355;-67
2022/03/02 03:08:34;;;;;;;37.53;20.60;;;;;;;-142.75;100.00;78982.41;5031291;28;20270;-69
2022/03/02 03:10:59;;;;;;;40.78;22.67;;;;;;;-142.75;100.00;78976.50;5031300;28;20033;-68
2022/03/02 03:13:24;;;;;;;35.72;21.13;;;;;;;-142.75;100.00;78966.66;5031100;28;20045;-67
2022/03/02 03:15:50;;;;;;;39.22;21.67;;;;;;;-142.75;100.00;78966.66;5046306;28;20021;-67
2022/03/02 03:18:15;;;;;;;37.00;21.27;;;;;;;-142.75;100.00;78968.63;5030830;28;20052;-67
2022/03/02 03:20:40;;;;;;;36.78;21.55;;;;;;;-142.75;100.00;78966.66;5031719;28;20025;-68
2022/03/02 03:23:06;;;;;;;42.25;22.10;;;;;;;-142.75;100.00;78978.47;5015349;28;20466;-67
2022/03/02 03:25:32;;;;;;;39.90;22.02;;;;;;;-142.75;100.00;78976.50;5011388;28;20026;-67
2022/03/02 03:27:57;;;;;;;35.13;20.08;;;;;;;-142.75;100.00;78994.22;5010718;28;20029;-67
2022/03/02 03:30:24;;;;;;;37.75;21.23;;;;;;;-142.75;100.00;78988.31;5011323;28;20053;-67
2022/03/02 03:35:33;;;;;;;40.10;22.40;;;;;;;-142.75;100.00;78984.38;5047431;28;20045;-71
2022/03/02 03:37:59;;;;;;;36.25;21.63;;;;;;;-142.75;100.00;78992.25;5049689;28;20025;-70
2022/03/02 03:40:24;;;;;;;36.40;22.13;;;;;;;-142.75;100.00;78996.19;5049462;28;20013;-71
2022/03/02 03:42:51;;;;;;;37.15;21.73;;;;;;;-142.75;100.00;79004.06;5036414;28;20033;-70
2022/03/02 03:45:17;;;;;;;39.73;21.90;;;;;;;-142.75;100.00;79000.13;5030709;28;20025;-71
2022/03/02 03:47:43;;;;;;;37.00;21.30;;;;;;;-142.75;100.00;78996.19;5029439;28;20031;-71
2022/03/02 03:50:09;;;;;;;37.22;22.02;;;;;;;-142.75;100.00;78990.28;5030935;28;20021;-71
2022/03/02 03:52:35;;;;;;;;;;;;;;;-142.75;100.00;78986.34;5032613;28;20074;-71
2022/03/02 03:55:01;;;;;;;38.40;21.50;;;;;;;-142.75;100.00;78976.50;5030410;28;19916;-70
2022/03/02 03:57:26;;;;;;;42.97;21.50;;;;;;;-142.75;100.00;78976.50;5030693;28;20124;-71
2022/03/02 03:59:52;;;;;;;39.40;21.35;;;;;;;-142.75;100.00;78982.41;5029944;28;20479;-70
2022/03/02 04:02:17;;;;;;;39.43;21.53;;;;;;;-142.75;100.00;78990.28;5029869;28;20100;-70
2022/03/02 04:04:42;;;;;;;41.15;22.25;;;;;;;-142.75;100.00;78990.28;5030391;28;20633;-71
2022/03/02 04:07:08;;;;;;;35.78;20.95;;;;;;;-142.75;100.00;78992.25;5028982;28;20025;-71
2022/03/02 04:09:33;;;;;;;39.15;21.45;;;;;;;-142.75;100.00;78996.19;5030128;28;20083;-70
2022/03/02 04:11:59;;;;;;;32.20;20.05;;;;;;;-142.75;100.00;78990.28;5029114;28;20044;-71
2022/03/02 04:14:24;;;;;;;39.03;21.50;;;;;;;-142.75;100.00;79000.13;5030004;28;20021;-71
2022/03/02 04:16:49;;;;;;;37.17;21.15;;;;;;;-142.75;100.00;79004.06;5030313;28;20052;-70
2022/03/02 04:19:15;;;;;;;37.55;21.52;;;;;;;-142.75;100.00;78996.19;5030500;28;20104;-71
2022/03/02 04:21:40;;;;;;;36.20;20.63;;;;;;;-142.75;100.00;79004.06;5030291;28;20108;-71
2022/03/02 04:24:05;;;;;;;39.92;21.63;;;;;;;-142.75;100.00;79000.13;5028962;28;20467;-71
2022/03/02 04:26:31;;;;;;;36.05;21.33;;;;;;;-142.75;100.00;78988.31;5028965;28;20403;-70
2022/03/02 04:28:56;;;;;;;36.63;21.55;;;;;;;-142.75;100.00;78986.34;5028261;28;20079;-71
2022/03/02 04:31:21;;;;;;;34.08;19.65;;;;;;;-142.75;100.00;78972.56;5030104;28;20104;-71
2022/03/02 04:33:47;;;;;;;38.03;20.48;;;;;;;-142.75;100.00;78972.56;5029890;28;20034;-71
2022/03/02 04:36:12;;;;;;;36.47;21.75;;;;;;;-142.75;100.00;78980.44;5030067;28;20475;-71
2022/03/02 04:38:37;;;;;;;34.30;20.15;;;;;;;-142.75;100.00;78968.63;5029632;28;20083;-70
2022/03/02 04:41:03;;;;;;;39.45;21.73;;;;;;;-142.75;100.00;78978.47;5030063;28;20017;-71
2022/03/02 04:43:28;;;;;;;37.00;21.73;;;;;;;-142.75;100.00;78982.41;5028580;28;20030;-70
2022/03/02 04:45:54;;;;;;;39.63;22.00;;;;;;;-142.75;100.00;78994.22;5029917;28;20041;-70
2022/03/02 04:48:19;;;;;;;39.63;21.63;;;;;;;-142.75;100.00;78972.56;5029737;28;20083;-71
2022/03/02 04:50:45;;;;;;;36.05;20.52;;;;;;;-142.75;100.00;78976.50;5029175;28;20104;-70
2022/03/02 04:53:10;;;;;;;40.15;22.02;;;;;;;-142.75;100.00;78966.66;5028565;28;20398;-70
2022/03/02 04:55:36;;;;;;;37.08;20.90;;;;;;;-142.75;100.00;78964.69;5040902;28;20057;-71
2022/03/02 04:58:02;;;;;;;39.53;21.05;;;;;;;-142.75;100.00;78960.72;5049912;28;20496;-70
2022/03/02 05:00:29;;;;;;;37.42;21.17;;;;;;;-142.75;100.00;78952.84;5053771;28;20098;-71
2022/03/02 05:02:56;;;;;;;38.40;21.37;;;;;;;-142.75;100.00;78960.72;5053540;28;20036;-71
2022/03/02 05:05:22;;;;;;;;;;;;;;;-142.75;100.00;78960.72;5054006;28;20025;-70
2022/03/02 05:07:49;;;;;;;36.15;20.65;;;;;;;-142.75;100.00;78958.75;5053069;28;19947;-69
2022/03/02 05:10:17;;;;;;;39.20;20.87;;;;;;;-142.75;100.00;78950.88;5052142;28;20509;-71
2022/03/02 05:12:43;;;;;;;37.23;21.53;;;;;;;-142.75;100.00;78966.66;5053138;28;20049;-70
2022/03/02 05:15:09;;;;;;;;;;;;;;;-142.75;100.00;78966.66;5053749;28;20525;-71
2022/03/02 05:17:36;;;;;;;35.03;19.80;;;;;;;-142.75;100.00;78954.81;5053048;28;20442;-71
2022/03/02 05:20:02;;;;;;;38.23;21.50;;;;;;;-142.75;100.00;78960.72;5051881;28;20020;-71
2022/03/02 05:22:27;;;;;;;36.57;20.93;;;;;;;-142.75;100.00;78960.72;5031962;28;20517;-71
2022/03/02 05:24:52;;;;;;;39.27;21.20;;;;;;;-142.75;100.00;78964.69;5033260;28;20025;-71
2022/03/02 05:27:18;;;;;;;36.50;19.80;;;;;;;-142.75;100.00;78972.56;5033190;28;20634;-70
2022/03/02 05:29:43;;;;;;;36.27;19.77;;;;;;;-142.75;100.00;78960.72;5032950;28;20781;-70
2022/03/02 05:32:09;;;;;;;39.00;22.10;;;;;;;-142.75;100.00;78968.63;5033023;28;20355;-70
2022/03/02 05:34:34;;;;;;;39.28;20.55;;;;;;;-142.75;100.00;78960.72;5033015;28;20028;-71
2022/03/02 05:37:00;;;;;;;43.65;22.23;;;;;;;-142.75;100.00;78956.78;5031841;28;20061;-71
2022/03/02 05:39:25;;;;;;;42.13;21.90;;;;;;;-142.75;100.00;78950.88;5032480;28;20024;-71
2022/03/02 05:41:51;;;;;;;33.20;19.80;;;;;;;-142.75;100.00;78931.19;5031861;28;20068;-70
2022/03/02 05:44:17;;;;;;;36.60;22.08;;;;;;;-142.75;100.00;78941.03;5032770;28;20482;-71
2022/03/02 05:46:42;;;;;;;37.08;21.48;;;;;;;-142.75;100.00;78948.91;5031725;28;20031;-70
2022/03/02 05:49:12;;;;;;;38.55;21.45;;;;;;;-142.75;100.00;78946.94;5031442;28;20453;-70
2022/03/02 05:51:39;;;;;;;37.37;21.70;;;;;;;-142.75;100.00;78939.06;5032042;28;20021;-70
2022/03/02 05:54:08;;;;;;;37.73;21.47;;;;;;;-142.75;100.00;78941.03;5032743;28;20795;-70
2022/03/02 05:56:34;;;;;;;34.97;19.87;;;;;;;-142.75;100.00;78960.72;5031374;28;20014;-70
2022/03/02 05:58:59;;;;;;;38.47;21.83;;;;;;;-142.75;100.00;78956.78;5032510;28;20091;-71
2022/03/02 06:01:24;;;;;;;38.83;20.80;;;;;;;-142.75;100.00;78958.75;5053099;28;20493;-71
2022/03/02 06:03:50;;;;;;;38.60;20.77;;;;;;;-142.75;100.00;78952.84;5053709;28;20350;-71
2022/03/02 06:06:16;;;;;;;35.85;21.67;;;;;;;-142.75;100.00;78952.84;5052619;28;20105;-70
2022/03/02 06:08:42;;;;;;;34.75;20.77;;;;;;;-142.75;100.00;78976.50;5051990;28;20470;-71
2022/03/02 06:11:08;;;;;;;37.03;21.15;;;;;;;-142.75;100.00;78964.69;5051447;28;20470;-70
2022/03/02 06:13:34;;;;;;;37.78;21.83;;;;;;;-142.75;100.00;78968.63;5050590;28;20056;-71
2022/03/02 06:15:59;;;;;;;41.33;21.33;;;;;;;-142.75;100.00;78958.75;5052381;28;20036;-70
2022/03/02 06:18:25;;;;;;;36.22;21.83;;;;;;;-142.75;100.00;78960.72;5050583;28;20024;-70
2022/03/02 06:20:52;;;;;;;39.95;20.75;;;;;;;-142.75;100.00;78952.84;5052859;28;20082;-70
2022/03/02 06:23:19;;;;;;;41.33;21.57;;;;;;;-142.75;100.00;78948.91;5052176;28;20025;-71
2022/03/02 06:25:44;;;;;;;41.37;21.83;;;;;;;-142.75;100.00;78956.78;5051962;28;20021;-70
2022/03/02 06:28:10;;;;;;;36.75;21.27;;;;;;;-142.75;100.00;78954.81;5051763;28;20025;-70
2022/03/02 06:30:35;;;;;;;39.10;22.25;;;;;;;-142.75;100.00;78956.78;5051425;28;20421;-70
2022/03/02 06:33:01;;;;;;;37.97;20.55;;;;;;;-142.75;100.00;78964.69;5050012;28;20375;-71
2022/03/02 06:35:26;;;;;;;39.30;20.80;;;;;;;-142.75;100.00;78960.72;5049951;28;20059;-70
2022/03/02 06:37:51;;;;;;;36.95;20.95;;;;;;;-142.75;100.00;78954.81;5050900;28;20024;-69
2022/03/02 06:40:17;;;;;;;37.22;20.23;;;;;;;-142.75;100.00;78956.78;5050898;28;20028;-70
2022/03/02 06:42:52;;;;;;;42.22;23.23;;;;;;;-142.75;100.00;78944.97;5051083;28;20028;-70
2022/03/02 06:45:27;;;;;;;35.93;19.83;;;;;;;-142.75;100.00;78933.16;5050953;28;20453;-71
2022/03/02 06:48:00;;;;;;;38.37;20.93;;;;;;;-142.75;100.00;78931.19;5046961;28;20116;-70
2022/03/02 06:50:28;;;;;;;36.07;20.50;;;;;;;-142.75;100.00;78931.19;5031688;28;20029;-71
2022/03/02 06:52:55;;;;;;;38.63;21.13;;;;;;;-142.75;100.00;78927.25;5031059;28;20080;-70
2022/03/02 06:55:21;;;;;;;35.67;20.77;;;;;;;-142.75;100.00;78933.16;5030954;28;20025;-70
2022/03/02 06:57:54;;;;;;;36.43;20.93;;;;;;;-142.75;100.00;78941.03;5029474;28;20097;-70
2022/03/02 07:00:20;;;;;;;35.80;20.93;;;;;;;-142.75;100.00;78933.16;5032863;28;20518;-71
2022/03/02 07:02:45;;;;;;;;;;;;;;;-142.75;100.00;78939.06;5042560;28;20024;-69
2022/03/02 07:05:11;;;;;;;35.93;20.20;;;;;;;-142.75;100.00;78952.84;5051002;28;19954;-71
2022/03/02 07:07:36;;;;;;;34.05;19.63;;;;;;;-142.75;100.00;78948.91;5050560;28;20545;-72
2022/03/02 07:10:04;;;;;;;36.22;20.05;;;;;;;-142.75;100.00;78935.13;5048684;28;20025;-70
2022/03/02 07:12:30;;;;;;;34.97;20.17;;;;;;;-142.75;100.00;78937.09;5048981;28;20033;-71
2022/03/02 07:14:57;;;;;;;34.17;20.17;;;;;;;-142.75;100.00;78937.09;5050037;28;20021;-70
2022/03/02 07:17:22;;;;;;;39.17;20.87;;;;;;;-142.75;100.00;78921.34;5050408;28;20029;-68
2022/03/02 07:19:48;;;;;;;38.80;20.83;;;;;;;-142.75;100.00;78929.22;5048947;28;20066;-69
2022/03/02 07:22:18;;;;;;;33.63;20.10;;;;;;;-142.75;100.00;78943.00;5050034;28;20080;-69
2022/03/02 07:24:52;;;;;;;37.80;21.53;;;;;;;-142.75;100.00;78937.09;5028917;28;20144;-68
2022/03/02 07:27:18;;;;;;;33.23;20.13;;;;;;;-142.75;100.00;78917.41;5048714;28;20079;-69
2022/03/02 07:29:44;;;;;;;33.07;20.23;;;;;;;-142.75;100.00;78878.00;5048461;28;20410;-69
2022/03/02 07:32:11;;;;;;;32.10;20.05;;;;;;;-142.75;100.00;78850.44;5050552;28;20031;-68
2022/03/02 07:34:42;;;;;;;32.80;19.50;;;;;;;-142.75;100.00;78834.69;5050299;28;20029;-69
2022/03/02 07:37:09;;;;;;;37.47;21.07;;;;;;;-142.75;100.00;78838.63;5050266;28;20033;-70
2022/03/02 07:39:35;;;;;;;34.87;20.33;;;;;;;-142.75;100.00;78832.72;5049982;28;20039;-70
2022/03/02 07:42:02;;;;;;;37.00;20.80;;;;;;;-142.75;100.00;78805.13;5043244;28;20033;-69
2022/03/02 07:44:28;;;;;;;37.43;19.93;;;;;;;-142.75;100.00;78779.53;5030363;28;20033;-69
2022/03/02 07:46:53;;;;;;;31.80;20.10;;;;;;;-142.75;100.00;78761.81;5030313;28;20029;-69
2022/03/02 07:49:20;;;;;;;34.63;20.23;;;;;;;-142.75;100.00;78742.09;5030126;28;20057;-70
2022/03/02 07:51:46;;;;;;;36.97;20.40;;;;;;;-142.75;100.00;78744.09;5030071;28;20037;-69
2022/03/02 07:54:14;;;;;;;33.67;19.30;;;;;;;-142.75;100.00;78736.19;5028694;28;20080;-70
2022/03/02 07:56:40;;;;;;;35.70;18.97;;;;;;;-142.75;100.00;78728.31;5049889;28;20395;-70
2022/03/02 07:59:07;;;;;;;33.45;20.58;;;;;;;-142.75;100.00;78718.47;5041729;28;20026;-70
2022/03/02 08:01:34;;;;;;;41.07;20.60;;;;;;;-142.75;100.00;78706.66;5050153;28;20024;-70
2022/03/02 08:04:05;;;;;;;33.47;19.47;;;;;;;-142.75;100.00;78688.94;5049941;28;20028;-69
2022/03/02 08:06:32;;;;;;;34.53;19.17;;;;;;;-142.75;100.00;78692.88;5049656;28;20119;-69
2022/03/02 08:08:57;;;;;;;28.93;18.20;;;;;;;-142.75;100.00;78685.00;5049425;28;20090;-70
2022/03/02 08:11:23;;;;;;;31.83;19.58;;;;;;;-142.75;100.00;78679.09;5049671;28;20025;-69
2022/03/02 08:13:48;;;;;;;33.72;18.85;;;;;;;-142.75;100.00;78671.22;5049212;28;20697;-69
2022/03/02 08:16:15;;;;;;;29.90;18.13;;;;;;;-142.75;100.00;78677.13;5034468;28;20032;-69
2022/03/02 08:18:40;;;;;;;29.00;16.70;;;;;;;-142.75;100.00;78659.38;5040052;28;20107;-72
2022/03/02 08:21:07;;;;;;;31.20;17.88;;;;;;;-142.75;100.00;78620.00;5035981;28;20105;-68
2022/03/02 08:23:37;;;;;;;32.73;16.67;;;;;;;-142.75;100.00;78578.63;5028348;28;20114;-69
2022/03/02 08:26:04;;;;;;;29.40;15.83;;;;;;;-142.75;100.00;78560.91;5036790;28;20021;-68
2022/03/02 08:28:32;;;;;;;27.07;15.93;;;;;;;-142.75;100.00;78547.13;5040868;28;20462;-69
2022/03/02 08:30:58;;;;;;;31.17;16.77;;;;;;;-142.75;100.00;78507.75;5049705;28;20062;-68
2022/03/02 08:33:29;;;;;;;;;;;;;;;-142.75;100.00;78476.22;5049293;28;20478;-68
2022/03/02 08:35:55;;;;;;;26.90;15.97;;;;;;;-142.75;100.00;78466.38;5031591;28;20018;-68
2022/03/02 08:38:22;;;;;;;24.10;15.07;;;;;;;-142.75;100.00;78472.28;5028890;28;20136;-68
2022/03/02 08:40:47;;;;;;;25.23;14.00;;;;;;;-142.75;100.00;78454.56;5028324;28;20553;-68
2022/03/02 08:43:15;;;;;;;27.17;14.55;;;;;;;-142.75;100.00;78464.41;5049414;28;20029;-68
2022/03/02 08:45:45;;;;;;;25.37;15.03;;;;;;;-142.75;100.00;78434.88;5043537;28;20052;-68
2022/03/02 08:48:14;;;;;;;28.97;15.23;;;;;;;-142.75;100.00;78393.50;5030031;28;20133;-68
2022/03/02 08:50:41;;;;;;;25.03;15.10;;;;;;;-142.75;100.00;78360.03;5028044;28;20041;-69
2022/03/02 08:53:06;;;;;;;24.57;13.77;;;;;;;-142.75;100.00;78346.25;5047947;28;20028;-68
2022/03/02 08:55:32;;;;;;;26.35;14.05;;;;;;;-142.75;100.00;78330.50;5049347;28;20037;-68
2022/03/02 08:57:58;;;;;;;25.63;13.70;;;;;;;-142.75;100.00;78302.94;5039344;28;20063;-69
2022/03/02 09:00:24;;;;;;;;;;;;;;;-142.75;96.62;78322.63;5030142;28;20025;-68
2022/03/02 09:02:52;;;;;;;27.20;15.17;;;;;;;-142.75;95.66;78322.63;5029436;28;20394;-68
2022/03/02 09:05:18;;;;;;;29.97;14.37;;;;;;;-142.75;94.63;78314.75;5033929;28;20530;-69
2022/03/02 09:07:44;;;;;;;25.25;14.88;;;;;;;-142.75;93.22;78306.88;5046470;28;20116;-68
2022/03/02 09:10:10;;;;;;;24.27;13.57;;;;;;;-142.75;93.71;78269.44;5028220;28;20045;-68
2022/03/02 09:12:35;;;;;;;25.77;13.77;;;;;;;-142.75;89.36;78235.97;5029869;28;20022;-69
2022/03/02 09:15:02;;;;;;;24.60;13.48;;;;;;;-142.75;85.47;78200.53;5029359;28;20037;-69
2022/03/02 09:17:28;;;;;;;;;;;;;;;-142.75;81.85;78159.16;5048128;28;20049;-69
2022/03/02 09:19:55;;;;;;;23.25;12.68;;;;;;;-142.75;79.38;78167.03;5049062;28;20330;-69
2022/03/02 09:22:26;;;;;;;21.13;11.75;;;;;;;-142.75;76.48;78174.91;5032953;28;20060;-70
2022/03/02 09:24:51;;;;;;;22.45;14.02;;;;;;;-142.75;77.43;78190.69;5027454;28;20403;-69
2022/03/02 09:27:19;;;;;;;19.73;12.43;;;;;;;-142.75;75.59;78184.78;5029121;28;20060;-70
2022/03/02 09:29:46;;;;;;;21.73;13.88;;;;;;;-142.75;76.76;78157.19;5028552;28;20102;-70
2022/03/02 09:32:13;;;;;;;22.80;12.40;;;;;;;-142.75;77.62;78137.50;5027314;28;20029;-70
2022/03/02 09:34:43;;;;;;;20.55;12.43;;;;;;;-142.75;73.89;78082.38;5027307;28;20022;-69
2022/03/02 09:37:09;;;;;;;21.35;12.10;;;;;;;-142.75;74.54;78044.94;5043743;28;20132;-70
2022/03/02 09:39:35;;;;;;;19.98;12.05;;;;;;;-142.75;69.54;78042.97;5028643;28;20026;-70
2022/03/02 09:42:10;;;;;;;27.45;12.52;;;;;;;-142.75;67.66;78046.91;5029200;28;20032;-69
2022/03/02 09:44:45;;;;;;;19.85;12.13;;;;;;;-142.75;68.84;78082.38;5074392;22;20041;-67
2022/03/02 09:47:18;;;;;;;24.08;12.93;;;;;;;-142.75;67.28;78064.66;5062380;28;20021;-67
2022/03/02 09:49:49;;;;;;;23.85;12.82;;;;;;;-142.75;67.47;78092.22;5066474;28;20426;-67
2022/03/02 09:52:20;;;;;;;20.65;12.55;;;;;;;-142.75;69.50;78106.00;5066907;28;20029;-67
2022/03/02 09:54:51;;;;;;;22.55;12.85;;;;;;;-142.75;67.58;78106.00;5071023;28;20023;-67
2022/03/02 09:57:18;;;;;;;19.63;11.85;;;;;;;-142.75;69.72;78098.13;5073371;28;20078;-67
2022/03/02 09:59:49;;;;;;;23.40;13.40;;;;;;;-142.75;70.38;78058.72;5072637;28;20375;-67
2022/03/02 10:02:29;;;;;;;25.58;13.30;;;;;;;-142.75;69.08;78058.72;5073110;28;20504;-67
2022/03/02 10:04:58;;;;;;;21.90;13.00;;;;;;;-142.75;68.63;78072.53;5068985;28;20036;-67
2022/03/02 10:07:29;;;;;;;22.35;13.02;;;;;;;-142.75;68.50;78017.38;5051950;28;20094;-67
2022/03/02 10:10:05;;;;;;;22.58;12.68;;;;;;;-142.75;66.11;78021.31;5052786;28;20065;-67
2022/03/02 10:12:32;;;;;;;21.75;13.13;;;;;;;-142.75;65.25;77991.78;5053110;28;20082;-67
2022/03/02 10:14:58;;;;;;;19.63;12.23;;;;;;;-142.75;66.05;77997.69;5051614;28;20032;-67
2022/03/02 10:17:30;;;;;;;22.23;13.52;;;;;;;-142.75;64.97;78027.22;5053067;28;20037;-67
2022/03/02 10:20:02;;;;;;;22.52;13.40;;;;;;;-142.75;67.34;78009.50;5051442;28;20028;-67
2022/03/02 10:22:39;;;;;;;22.38;12.95;;;;;;;-142.75;65.16;77952.41;5052880;28;20053;-67
2022/03/02 10:25:17;;;;;;;20.73;13.32;;;;;;;-142.75;65.16;77926.81;5052689;28;20119;-67
2022/03/02 10:28:05;;;;;;;24.42;12.60;;;;;;;-142.75;64.47;77920.91;5051479;28;20497;-67
2022/03/02 10:30:33;;;;;;;21.42;13.75;;;;;;;-142.75;64.04;77932.72;5052705;28;20063;-68
2022/03/02 10:33:16;;;;;;;22.17;13.15;;;;;;;-142.75;64.69;77895.28;5051279;28;20104;-68
2022/03/02 10:35:50;;;;;;;23.13;11.55;;;;;;;-142.75;64.03;77861.81;5052727;28;20033;-67
2022/03/02 10:38:22;;;;;;;22.55;12.93;;;;;;;-142.75;60.82;77834.25;5052350;28;20036;-68
2022/03/02 10:40:50;;;;;;;21.15;13.10;;;;;;;-142.75;62.74;77850.00;5052525;28;20086;-67
2022/03/02 10:43:21;;;;;;;20.80;12.07;;;;;;;-142.75;61.00;77810.63;5052309;28;20078;-67
2022/03/02 10:45:51;;;;;;;23.30;13.40;;;;;;;-142.75;62.46;77810.63;5052630;28;20082;-67
2022/03/02 10:48:19;;;;;;;25.13;14.98;;;;;;;-142.75;59.69;77810.63;5050871;28;20060;-67
2022/03/02 10:50:46;;;;;;;28.58;17.48;;;;;;;-142.75;60.51;77749.59;5052299;28;21458;-68
2022/03/02 10:53:18;;;;;;;22.83;12.52;;;;;;;-142.75;58.92;77735.81;5052198;28;20066;-67
2022/03/02 10:55:46;;;;;;;43.65;23.35;;;;;;;-142.75;58.06;77722.00;5051997;28;20029;-68
2022/03/02 10:58:17;;;;;;;30.13;16.23;;;;;;;-142.75;59.50;77672.78;5051835;28;20029;-67